sensor_id;sensor_type;location;lat;lon;timestamp;pressure;altitude;pressure_sealevel;temperature;humidity
58875;BME280;44652;49.040;12.126;2022-07-23T16:30:38;97565.56;;;28.18;38.97
58875;BME280;44652;49.040;12.126;2022-07-23T16:33:06;97567.63;;;28.13;39.19
58875;BME280;44652;49.040;12.126;2022-07-23T16:35:34;97567.56;;;27.94;39.49
58875;BME280;44652;49.040;12.126;2022-07-23T16:38:01;97576.84;;;27.88;39.71
58875;BME280;44652;49.040;12.126;2022-07-23T16:40:30;97570.84;;;27.80;39.94
58875;BME280;44652;49.040;12.126;2022-07-23T16:42:57;97559.50;;;28.13;39.53
58875;BME280;44652;49.040;12.126;2022-07-23T16:45:24;97567.34;;;28.40;39.07
58875;BME280;44652;49.040;12.126;2022-07-23T16:47:51;97569.91;;;28.43;38.25
58875;BME280;44652;49.040;12.126;2022-07-23T16:50:18;97559.72;;;28.48;38.22
58875;BME280;44652;49.040;12.126;2022-07-23T16:52:44;97556.16;;;28.66;37.37
58875;BME280;44652;49.040;12.126;2022-07-23T16:55:11;97576.59;;;28.54;37.46
58875;BME280;44652;49.040;12.126;2022-07-23T16:57:38;97555.75;;;28.75;37.26
58875;BME280;44652;49.040;12.126;2022-07-23T17:00:07;97568.09;;;29.38;36.35
58875;BME280;44652;49.040;12.126;2022-07-23T17:02:38;97568.44;;;29.49;36.30
58875;BME280;44652;49.040;12.126;2022-07-23T17:05:19;97563.47;;;29.57;36.74
58875;BME280;44652;49.040;12.126;2022-07-23T17:08:06;97547.44;;;29.52;35.64
58875;BME280;44652;49.040;12.126;2022-07-23T17:10:36;97578.63;;;29.80;35.87
58875;BME280;44652;49.040;12.126;2022-07-23T17:13:05;97577.53;;;30.01;34.97
58875;BME280;44652;49.040;12.126;2022-07-23T17:15:34;97556.31;;;29.73;34.73
58875;BME280;44652;49.040;12.126;2022-07-23T17:18:02;97559.03;;;29.73;34.24
58875;BME280;44652;49.040;12.126;2022-07-23T17:20:29;97568.88;;;30.11;34.57
58875;BME280;44652;49.040;12.126;2022-07-23T17:22:56;97567.66;;;30.34;34.84
58875;BME280;44652;49.040;12.126;2022-07-23T17:25:30;97568.50;;;30.18;34.27
58875;BME280;44652;49.040;12.126;2022-07-23T17:27:56;97576.25;;;30.26;33.42
58875;BME280;44652;49.040;12.126;2022-07-23T17:30:48;97570.84;;;29.19;34.86
58875;BME280;44652;49.040;12.126;2022-07-23T17:33:15;97573.81;;;29.31;36.26
58875;BME280;44652;49.040;12.126;2022-07-23T17:35:41;97527.94;;;29.44;34.52
58875;BME280;44652;49.040;12.126;2022-07-23T17:54:36;97584.28;;;27.61;38.56
58875;BME280;44652;49.040;12.126;2022-07-23T17:57:09;97574.81;;;27.29;39.05
58875;BME280;44652;49.040;12.126;2022-07-23T17:59:36;97607.69;;;27.20;39.23
58875;BME280;44652;49.040;12.126;2022-07-23T18:02:03;97592.63;;;26.89;39.43
58875;BME280;44652;49.040;12.126;2022-07-23T18:04:29;97553.63;;;26.50;40.84
58875;BME280;44652;49.040;12.126;2022-07-23T18:11:38;97560.34;;;26.14;41.25
58875;BME280;44652;49.040;12.126;2022-07-23T18:18:34;97596.88;;;26.00;42.56
58875;BME280;44652;49.040;12.126;2022-07-23T18:34:23;97636.09;;;25.58;45.76
58875;BME280;44652;49.040;12.126;2022-07-23T18:37:13;97637.16;;;25.53;46.66
58875;BME280;44652;49.040;12.126;2022-07-23T18:40:00;97619.78;;;25.35;46.43
58875;BME280;44652;49.040;12.126;2022-07-23T18:42:27;97643.41;;;25.27;47.45
58875;BME280;44652;49.040;12.126;2022-07-23T18:44:54;97635.38;;;25.25;47.32
58875;BME280;44652;49.040;12.126;2022-07-23T18:47:21;97634.88;;;25.12;47.33
58875;BME280;44652;49.040;12.126;2022-07-23T18:49:47;97650.84;;;25.18;47.68
58875;BME280;44652;49.040;12.126;2022-07-23T18:52:14;97636.84;;;25.06;47.69
58875;BME280;44652;49.040;12.126;2022-07-23T18:54:41;97651.31;;;25.03;47.80
58875;BME280;44652;49.040;12.126;2022-07-23T18:57:07;97671.97;;;25.04;48.10
58875;BME280;44652;49.040;12.126;2022-07-23T18:59:35;97678.47;;;24.97;48.07
58875;BME280;44652;49.040;12.126;2022-07-23T19:02:03;97673.19;;;24.92;47.83
58875;BME280;44652;49.040;12.126;2022-07-23T19:04:30;97679.50;;;24.93;48.24
58875;BME280;44652;49.040;12.126;2022-07-23T19:06:57;97676.56;;;24.69;48.73
58875;BME280;44652;49.040;12.126;2022-07-23T19:09:24;97680.22;;;24.68;49.58
58875;BME280;44652;49.040;12.126;2022-07-23T19:11:55;97673.50;;;24.52;50.00
58875;BME280;44652;49.040;12.126;2022-07-23T19:14:22;97694.78;;;24.61;49.87
58875;BME280;44652;49.040;12.126;2022-07-23T19:16:50;97704.16;;;24.48;50.85
58875;BME280;44652;49.040;12.126;2022-07-23T19:19:17;97694.09;;;24.20;52.53
58875;BME280;44652;49.040;12.126;2022-07-23T19:21:44;97688.97;;;24.11;52.66
58875;BME280;44652;49.040;12.126;2022-07-23T19:24:10;97722.72;;;24.24;51.49
58875;BME280;44652;49.040;12.126;2022-07-23T19:26:37;97705.19;;;24.08;51.80
58875;BME280;44652;49.040;12.126;2022-07-23T19:29:04;97715.88;;;24.11;52.02
58875;BME280;44652;49.040;12.126;2022-07-23T19:31:31;97726.19;;;23.94;52.62
58875;BME280;44652;49.040;12.126;2022-07-23T19:33:58;97716.69;;;23.81;53.02
58875;BME280;44652;49.040;12.126;2022-07-23T19:36:25;97731.94;;;23.80;53.91
58875;BME280;44652;49.040;12.126;2022-07-23T19:38:51;97721.91;;;23.48;56.42
58875;BME280;44652;49.040;12.126;2022-07-23T19:41:18;97749.31;;;23.64;54.41
58875;BME280;44652;49.040;12.126;2022-07-23T19:43:45;97722.66;;;23.54;54.21
58875;BME280;44652;49.040;12.126;2022-07-23T19:46:11;97725.81;;;23.35;55.47
58875;BME280;44652;49.040;12.126;2022-07-23T19:48:38;97750.66;;;23.46;55.41
58875;BME280;44652;49.040;12.126;2022-07-23T19:51:05;97747.34;;;23.35;55.82
58875;BME280;44652;49.040;12.126;2022-07-23T19:53:32;97740.09;;;23.37;55.12
58875;BME280;44652;49.040;12.126;2022-07-23T19:55:58;97753.66;;;23.34;55.33
58875;BME280;44652;49.040;12.126;2022-07-23T19:58:25;97739.78;;;23.10;56.28
58875;BME280;44652;49.040;12.126;2022-07-23T20:00:52;97733.16;;;22.83;57.45
58875;BME280;44652;49.040;12.126;2022-07-23T20:03:18;97759.75;;;22.98;58.67
58875;BME280;44652;49.040;12.126;2022-07-23T20:05:45;97754.50;;;22.91;59.21
58875;BME280;44652;49.040;12.126;2022-07-23T20:08:12;97754.72;;;22.81;60.00
58875;BME280;44652;49.040;12.126;2022-07-23T20:10:43;97767.50;;;22.69;60.25
58875;BME280;44652;49.040;12.126;2022-07-23T20:13:10;97741.75;;;22.58;59.15
58875;BME280;44652;49.040;12.126;2022-07-23T20:15:39;97761.47;;;22.56;60.67
58875;BME280;44652;49.040;12.126;2022-07-23T20:18:05;97745.75;;;22.36;62.80
58875;BME280;44652;49.040;12.126;2022-07-23T20:20:32;97753.75;;;22.38;62.79
58875;BME280;44652;49.040;12.126;2022-07-23T20:22:59;97759.38;;;22.25;62.41
58875;BME280;44652;49.040;12.126;2022-07-23T20:25:25;97758.41;;;22.29;61.04
58875;BME280;44652;49.040;12.126;2022-07-23T20:27:52;97755.72;;;22.29;60.90
58875;BME280;44652;49.040;12.126;2022-07-23T20:30:20;97773.53;;;22.33;60.97
58875;BME280;44652;49.040;12.126;2022-07-23T20:32:47;97760.22;;;22.27;61.74
58875;BME280;44652;49.040;12.126;2022-07-23T20:35:13;97767.53;;;22.19;63.09
58875;BME280;44652;49.040;12.126;2022-07-23T20:48:52;97788.91;;;21.68;66.28
58875;BME280;44652;49.040;12.126;2022-07-23T20:51:19;97780.78;;;21.73;65.56
58875;BME280;44652;49.040;12.126;2022-07-23T20:53:46;97771.38;;;21.46;65.87
58875;BME280;44652;49.040;12.126;2022-07-23T20:56:13;97795.16;;;21.69;66.40
58875;BME280;44652;49.040;12.126;2022-07-23T20:58:39;97797.06;;;21.59;66.85
58875;BME280;44652;49.040;12.126;2022-07-23T21:01:06;97795.44;;;21.50;66.44
58875;BME280;44652;49.040;12.126;2022-07-23T21:03:33;97799.31;;;21.25;66.12
58875;BME280;44652;49.040;12.126;2022-07-23T21:06:00;97815.22;;;21.42;67.02
58875;BME280;44652;49.040;12.126;2022-07-23T21:08:27;97792.06;;;21.34;67.12
58875;BME280;44652;49.040;12.126;2022-07-23T21:10:53;97801.44;;;21.00;68.26
58875;BME280;44652;49.040;12.126;2022-07-23T21:13:20;97820.00;;;21.13;68.30
58875;BME280;44652;49.040;12.126;2022-07-23T21:15:47;97808.56;;;21.01;68.96
58875;BME280;44652;49.040;12.126;2022-07-23T21:18:14;97828.28;;;20.95;69.44
58875;BME280;44652;49.040;12.126;2022-07-23T21:20:40;97814.13;;;20.84;69.88
58875;BME280;44652;49.040;12.126;2022-07-23T21:23:25;97822.03;;;20.96;69.33
58875;BME280;44652;49.040;12.126;2022-07-23T21:25:52;97837.50;;;20.68;70.58
58875;BME280;44652;49.040;12.126;2022-07-23T21:28:41;97838.25;;;20.84;69.96
58875;BME280;44652;49.040;12.126;2022-07-23T21:31:08;97834.69;;;20.82;70.19
58875;BME280;44652;49.040;12.126;2022-07-23T21:33:35;97821.59;;;20.53;70.75
58875;BME280;44652;49.040;12.126;2022-07-23T21:36:02;97810.94;;;20.50;70.83
58875;BME280;44652;49.040;12.126;2022-07-23T21:38:29;97830.31;;;20.72;70.67
58875;BME280;44652;49.040;12.126;2022-07-23T21:40:56;97811.72;;;20.58;70.30
58875;BME280;44652;49.040;12.126;2022-07-23T21:43:23;97811.78;;;20.49;69.58
58875;BME280;44652;49.040;12.126;2022-07-23T21:45:50;97833.16;;;20.58;70.49
58875;BME280;44652;49.040;12.126;2022-07-23T21:48:17;97814.47;;;20.52;70.12
58875;BME280;44652;49.040;12.126;2022-07-23T21:50:45;97835.03;;;20.44;70.69
58875;BME280;44652;49.040;12.126;2022-07-23T21:53:12;97809.38;;;20.21;70.76
58875;BME280;44652;49.040;12.126;2022-07-23T21:55:38;97831.53;;;20.37;71.45
58875;BME280;44652;49.040;12.126;2022-07-23T21:58:05;97815.59;;;20.23;70.72
58875;BME280;44652;49.040;12.126;2022-07-23T22:00:33;97846.66;;;20.41;70.30
58875;BME280;44652;49.040;12.126;2022-07-23T22:03:05;97849.38;;;20.36;70.75
58875;BME280;44652;49.040;12.126;2022-07-23T22:05:32;97840.56;;;20.22;71.65
58875;BME280;44652;49.040;12.126;2022-07-23T22:07:59;97852.16;;;20.26;71.20
58875;BME280;44652;49.040;12.126;2022-07-23T22:10:26;97858.38;;;20.26;70.08
58875;BME280;44652;49.040;12.126;2022-07-23T22:12:53;97832.63;;;20.13;69.63
58875;BME280;44652;49.040;12.126;2022-07-23T22:15:20;97836.16;;;20.15;69.54
58875;BME280;44652;49.040;12.126;2022-07-23T22:17:49;97848.75;;;20.08;70.67
58875;BME280;44652;49.040;12.126;2022-07-23T22:20:16;97845.31;;;19.88;71.88
58875;BME280;44652;49.040;12.126;2022-07-23T22:22:45;97855.09;;;19.93;72.23
58875;BME280;44652;49.040;12.126;2022-07-23T22:25:12;97856.84;;;19.95;71.98
58875;BME280;44652;49.040;12.126;2022-07-23T22:27:53;97861.44;;;19.79;72.58
58875;BME280;44652;49.040;12.126;2022-07-23T22:30:52;97839.19;;;19.61;73.49
58875;BME280;44652;49.040;12.126;2022-07-23T22:33:23;97848.97;;;19.75;72.64
58875;BME280;44652;49.040;12.126;2022-07-23T22:35:49;97857.09;;;19.52;73.69
58875;BME280;44652;49.040;12.126;2022-07-23T22:38:16;97846.41;;;19.49;74.04
58875;BME280;44652;49.040;12.126;2022-07-23T22:41:03;97871.28;;;19.69;72.91
58875;BME280;44652;49.040;12.126;2022-07-23T22:43:42;97836.63;;;19.44;72.97
58875;BME280;44652;49.040;12.126;2022-07-23T22:46:11;97852.63;;;19.55;73.11
58875;BME280;44652;49.040;12.126;2022-07-23T22:48:40;97850.03;;;19.38;72.95
58875;BME280;44652;49.040;12.126;2022-07-23T22:51:10;97851.75;;;19.47;73.61
58875;BME280;44652;49.040;12.126;2022-07-23T22:53:43;97870.41;;;19.61;73.76
58875;BME280;44652;49.040;12.126;2022-07-23T22:56:10;97846.41;;;19.49;73.76
58875;BME280;44652;49.040;12.126;2022-07-23T22:58:36;97850.84;;;19.53;73.16
58875;BME280;44652;49.040;12.126;2022-07-23T23:01:03;97866.88;;;19.59;72.82
58875;BME280;44652;49.040;12.126;2022-07-23T23:03:30;97818.00;;;19.29;72.76
58875;BME280;44652;49.040;12.126;2022-07-23T23:05:57;97859.75;;;19.56;72.73
58875;BME280;44652;49.040;12.126;2022-07-23T23:08:23;97857.09;;;19.50;72.86
58875;BME280;44652;49.040;12.126;2022-07-23T23:10:53;97839.34;;;19.38;72.54
58875;BME280;44652;49.040;12.126;2022-07-23T23:13:20;97848.25;;;19.40;72.99
58875;BME280;44652;49.040;12.126;2022-07-23T23:15:46;97840.25;;;19.31;73.22
58875;BME280;44652;49.040;12.126;2022-07-23T23:18:13;97839.41;;;19.26;73.56
58875;BME280;44652;49.040;12.126;2022-07-23T23:20:40;97856.34;;;19.28;73.73
58875;BME280;44652;49.040;12.126;2022-07-23T23:23:06;97858.06;;;19.34;73.89
58875;BME280;44652;49.040;12.126;2022-07-23T23:25:33;97851.84;;;19.36;73.74
58875;BME280;44652;49.040;12.126;2022-07-23T23:28:00;97863.41;;;19.34;74.81
58875;BME280;44652;49.040;12.126;2022-07-23T23:30:27;97849.25;;;19.18;75.37
58875;BME280;44652;49.040;12.126;2022-07-23T23:32:53;97880.38;;;19.28;75.85
58875;BME280;44652;49.040;12.126;2022-07-23T23:35:20;97856.38;;;19.14;75.95
58875;BME280;44652;49.040;12.126;2022-07-23T23:37:47;97869.75;;;19.07;76.61
58875;BME280;44652;49.040;12.126;2022-07-23T23:40:16;97877.75;;;19.11;76.70
58875;BME280;44652;49.040;12.126;2022-07-23T23:42:43;97870.63;;;19.12;75.36
58875;BME280;44652;49.040;12.126;2022-07-23T23:45:10;97858.25;;;18.91;75.75
58875;BME280;44652;49.040;12.126;2022-07-23T23:47:37;97871.50;;;19.12;76.26
58875;BME280;44652;49.040;12.126;2022-07-23T23:50:04;97882.22;;;19.11;75.60
58875;BME280;44652;49.040;12.126;2022-07-23T23:52:31;97879.56;;;19.06;75.65
58875;BME280;44652;49.040;12.126;2022-07-23T23:54:58;97869.78;;;19.01;75.83
58875;BME280;44652;49.040;12.126;2022-07-23T23:57:25;97858.19;;;18.97;76.19
58875;BME280;44652;49.040;12.126;2022-07-23T23:59:51;97884.91;;;19.09;76.21
